sensor_id;sensor_type;location;lat;lon;timestamp;pressure;altitude;pressure_sealevel;temperature;humidity
24422;BME280;12600;53.326;-6.298;2023-05-19T00:00:44;102485.41;;;17.52;70.09
24422;BME280;12600;53.326;-6.298;2023-05-19T00:03:37;102481.19;;;17.54;71.40
24422;BME280;12600;53.326;-6.298;2023-05-19T00:06:29;102478.25;;;17.51;70.46
24422;BME280;12600;53.326;-6.298;2023-05-19T00:09:20;102484.09;;;17.49;70.23
24422;BME280;12600;53.326;-6.298;2023-05-19T00:12:13;102489.28;;;17.51;70.27
24422;BME280;12600;53.326;-6.298;2023-05-19T00:15:03;102488.16;;;17.52;71.66
24422;BME280;12600;53.326;-6.298;2023-05-19T00:17:53;102496.94;;;17.54;70.61
24422;BME280;12600;53.326;-6.298;2023-05-19T00:20:43;102494.81;;;17.51;71.33
24422;BME280;12600;53.326;-6.298;2023-05-19T00:23:32;102498.41;;;17.51;71.24
24422;BME280;12600;53.326;-6.298;2023-05-19T00:26:22;102486.63;;;17.46;71.45
24422;BME280;12600;53.326;-6.298;2023-05-19T00:29:20;102491.03;;;17.47;72.07
24422;BME280;12600;53.326;-6.298;2023-05-19T00:32:09;102481.94;;;17.46;71.50
24422;BME280;12600;53.326;-6.298;2023-05-19T00:34:59;102506.38;;;17.53;71.54
24422;BME280;12600;53.326;-6.298;2023-05-19T00:37:48;102505.38;;;17.49;71.50
24422;BME280;12600;53.326;-6.298;2023-05-19T00:40:37;102507.63;;;17.47;71.78
24422;BME280;12600;53.326;-6.298;2023-05-19T00:43:27;102516.31;;;17.40;72.09
24422;BME280;12600;53.326;-6.298;2023-05-19T00:46:18;102505.72;;;17.33;71.87
24422;BME280;12600;53.326;-6.298;2023-05-19T00:49:08;102522.28;;;17.33;73.15
24422;BME280;12600;53.326;-6.298;2023-05-19T00:51:59;102525.78;;;17.25;73.75
24422;BME280;12600;53.326;-6.298;2023-05-19T00:54:49;102531.09;;;17.22;73.77
24422;BME280;12600;53.326;-6.298;2023-05-19T00:57:39;102524.13;;;17.24;73.83
24422;BME280;12600;53.326;-6.298;2023-05-19T01:00:30;102522.63;;;17.18;74.01
24422;BME280;12600;53.326;-6.298;2023-05-19T01:03:23;102532.13;;;17.12;74.50
24422;BME280;12600;53.326;-6.298;2023-05-19T01:06:12;102545.03;;;17.03;75.41
24422;BME280;12600;53.326;-6.298;2023-05-19T01:09:02;102545.53;;;17.05;75.16
24422;BME280;12600;53.326;-6.298;2023-05-19T01:11:51;102535.69;;;16.99;75.57
24422;BME280;12600;53.326;-6.298;2023-05-19T01:14:41;102554.31;;;16.93;74.50
24422;BME280;12600;53.326;-6.298;2023-05-19T01:17:38;102551.03;;;16.77;74.35
24422;BME280;12600;53.326;-6.298;2023-05-19T01:20:38;102547.31;;;16.68;74.39
24422;BME280;12600;53.326;-6.298;2023-05-19T01:23:38;102564.72;;;16.69;72.85
24422;BME280;12600;53.326;-6.298;2023-05-19T01:27:01;102546.47;;;16.54;71.08
24422;BME280;12600;53.326;-6.298;2023-05-19T01:30:26;102540.56;;;16.61;71.26
24422;BME280;12600;53.326;-6.298;2023-05-19T01:33:17;102531.34;;;16.65;70.93
24422;BME280;12600;53.326;-6.298;2023-05-19T01:36:09;102520.94;;;16.62;70.99
24422;BME280;12600;53.326;-6.298;2023-05-19T01:39:00;102528.53;;;16.70;70.80
24422;BME280;12600;53.326;-6.298;2023-05-19T01:41:50;102513.59;;;16.71;70.89
24422;BME280;12600;53.326;-6.298;2023-05-19T01:44:40;102510.09;;;16.66;69.57
24422;BME280;12600;53.326;-6.298;2023-05-19T01:47:32;102520.50;;;16.55;67.16
24422;BME280;12600;53.326;-6.298;2023-05-19T01:50:22;102513.94;;;16.51;66.79
24422;BME280;12600;53.326;-6.298;2023-05-19T01:53:11;102527.63;;;16.42;65.82
24422;BME280;12600;53.326;-6.298;2023-05-19T01:56:01;102527.59;;;16.29;64.63
24422;BME280;12600;53.326;-6.298;2023-05-19T01:58:55;102533.13;;;16.29;64.56
24422;BME280;12600;53.326;-6.298;2023-05-19T02:01:51;102533.94;;;16.29;64.77
24422;BME280;12600;53.326;-6.298;2023-05-19T02:04:48;102534.84;;;16.25;64.41
24422;BME280;12600;53.326;-6.298;2023-05-19T02:07:43;102538.09;;;16.27;64.77
24422;BME280;12600;53.326;-6.298;2023-05-19T02:10:37;102539.84;;;16.22;64.56
24422;BME280;12600;53.326;-6.298;2023-05-19T02:13:35;102538.78;;;16.18;64.71
24422;BME280;12600;53.326;-6.298;2023-05-19T02:16:27;102534.56;;;16.07;64.95
24422;BME280;12600;53.326;-6.298;2023-05-19T02:19:22;102540.09;;;16.07;65.52
24422;BME280;12600;53.326;-6.298;2023-05-19T02:22:16;102542.59;;;16.04;65.63
24422;BME280;12600;53.326;-6.298;2023-05-19T02:25:08;102549.16;;;16.08;65.28
24422;BME280;12600;53.326;-6.298;2023-05-19T02:27:59;102545.38;;;16.04;65.34
24422;BME280;12600;53.326;-6.298;2023-05-19T02:30:50;102545.38;;;16.04;65.52
24422;BME280;12600;53.326;-6.298;2023-05-19T02:33:39;102557.00;;;16.01;65.24
24422;BME280;12600;53.326;-6.298;2023-05-19T02:36:35;102566.63;;;15.84;65.63
24422;BME280;12600;53.326;-6.298;2023-05-19T02:39:26;102556.56;;;15.75;65.61
24422;BME280;12600;53.326;-6.298;2023-05-19T02:42:16;102542.28;;;15.73;65.11
24422;BME280;12600;53.326;-6.298;2023-05-19T02:45:06;102550.53;;;15.73;64.97
24422;BME280;12600;53.326;-6.298;2023-05-19T02:47:56;102557.44;;;15.70;65.38
24422;BME280;12600;53.326;-6.298;2023-05-19T02:50:47;102559.75;;;15.63;65.60
24422;BME280;12600;53.326;-6.298;2023-05-19T02:53:36;102557.28;;;15.61;65.87
24422;BME280;12600;53.326;-6.298;2023-05-19T02:56:27;102563.69;;;15.57;65.76
24422;BME280;12600;53.326;-6.298;2023-05-19T02:59:16;102564.63;;;15.47;66.03
24422;BME280;12600;53.326;-6.298;2023-05-19T03:02:06;102567.16;;;15.44;66.56
24422;BME280;12600;53.326;-6.298;2023-05-19T03:04:55;102566.94;;;15.40;66.36
24422;BME280;12600;53.326;-6.298;2023-05-19T03:07:44;102566.34;;;15.43;66.04
24422;BME280;12600;53.326;-6.298;2023-05-19T03:10:34;102555.84;;;15.45;65.86
24422;BME280;12600;53.326;-6.298;2023-05-19T03:13:25;102552.63;;;15.38;65.45
24422;BME280;12600;53.326;-6.298;2023-05-19T03:16:14;102563.41;;;15.34;65.94
24422;BME280;12600;53.326;-6.298;2023-05-19T03:19:03;102569.22;;;15.33;66.11
24422;BME280;12600;53.326;-6.298;2023-05-19T03:21:53;102566.00;;;15.26;66.23
24422;BME280;12600;53.326;-6.298;2023-05-19T03:24:43;102553.63;;;15.23;65.98
24422;BME280;12600;53.326;-6.298;2023-05-19T03:27:32;102561.38;;;15.21;66.30
24422;BME280;12600;53.326;-6.298;2023-05-19T03:30:23;102561.66;;;15.20;65.85
24422;BME280;12600;53.326;-6.298;2023-05-19T03:33:28;102563.91;;;15.18;66.04
24422;BME280;12600;53.326;-6.298;2023-05-19T03:36:18;102556.50;;;15.13;65.87
24422;BME280;12600;53.326;-6.298;2023-05-19T03:39:08;102568.34;;;15.14;66.11
24422;BME280;12600;53.326;-6.298;2023-05-19T03:41:58;102558.75;;;15.11;66.20
24422;BME280;12600;53.326;-6.298;2023-05-19T03:44:47;102573.63;;;15.10;66.20
24422;BME280;12600;53.326;-6.298;2023-05-19T03:47:39;102567.88;;;15.06;66.19
24422;BME280;12600;53.326;-6.298;2023-05-19T03:50:43;102573.97;;;15.03;66.74
24422;BME280;12600;53.326;-6.298;2023-05-19T03:53:41;102578.97;;;15.01;66.98
24422;BME280;12600;53.326;-6.298;2023-05-19T03:56:32;102578.69;;;14.98;67.55
24422;BME280;12600;53.326;-6.298;2023-05-19T03:59:21;102580.63;;;14.97;67.06
24422;BME280;12600;53.326;-6.298;2023-05-19T04:02:12;102581.44;;;14.98;67.27
24422;BME280;12600;53.326;-6.298;2023-05-19T04:05:05;102587.56;;;14.95;67.05
24422;BME280;12600;53.326;-6.298;2023-05-19T04:07:57;102586.25;;;14.87;66.90
24422;BME280;12600;53.326;-6.298;2023-05-19T04:10:46;102584.66;;;14.81;67.00
24422;BME280;12600;53.326;-6.298;2023-05-19T04:13:35;102579.50;;;14.74;67.26
24422;BME280;12600;53.326;-6.298;2023-05-19T04:16:25;102583.94;;;14.70;67.14
24422;BME280;12600;53.326;-6.298;2023-05-19T04:19:14;102591.94;;;14.67;67.21
24422;BME280;12600;53.326;-6.298;2023-05-19T04:22:05;102594.75;;;14.62;67.36
24422;BME280;12600;53.326;-6.298;2023-05-19T04:24:55;102599.19;;;14.58;67.98
24422;BME280;12600;53.326;-6.298;2023-05-19T04:27:45;102602.56;;;14.49;68.37
24422;BME280;12600;53.326;-6.298;2023-05-19T04:30:35;102614.66;;;14.43;68.78
24422;BME280;12600;53.326;-6.298;2023-05-19T04:33:25;102610.88;;;14.39;68.40
24422;BME280;12600;53.326;-6.298;2023-05-19T04:36:16;102612.78;;;14.39;68.19
24422;BME280;12600;53.326;-6.298;2023-05-19T04:39:12;102614.47;;;14.35;68.64
24422;BME280;12600;53.326;-6.298;2023-05-19T04:42:05;102619.19;;;14.29;69.18
24422;BME280;12600;53.326;-6.298;2023-05-19T04:44:56;102629.09;;;14.25;68.81
24422;BME280;12600;53.326;-6.298;2023-05-19T04:47:48;102634.59;;;14.25;69.49
24422;BME280;12600;53.326;-6.298;2023-05-19T04:50:39;102627.56;;;14.14;69.80
24422;BME280;12600;53.326;-6.298;2023-05-19T04:53:29;102635.75;;;14.19;69.67
24422;BME280;12600;53.326;-6.298;2023-05-19T04:56:21;102634.91;;;14.18;69.90
24422;BME280;12600;53.326;-6.298;2023-05-19T04:59:10;102644.56;;;14.16;69.89
24422;BME280;12600;53.326;-6.298;2023-05-19T05:02:00;102644.28;;;14.17;70.12
24422;BME280;12600;53.326;-6.298;2023-05-19T05:04:50;102635.75;;;14.19;69.88
24422;BME280;12600;53.326;-6.298;2023-05-19T05:07:42;102636.56;;;14.19;70.32
24422;BME280;12600;53.326;-6.298;2023-05-19T05:10:32;102638.47;;;14.24;70.10
24422;BME280;12600;53.326;-6.298;2023-05-19T05:13:24;102644.00;;;14.19;70.45
24422;BME280;12600;53.326;-6.298;2023-05-19T05:16:15;102630.81;;;14.16;70.27
24422;BME280;12600;53.326;-6.298;2023-05-19T05:19:08;102636.81;;;14.23;70.06
24422;BME280;12600;53.326;-6.298;2023-05-19T05:22:13;102631.66;;;14.16;70.75
24422;BME280;12600;53.326;-6.298;2023-05-19T05:25:06;102603.47;;;13.95;70.48
24422;BME280;12600;53.326;-6.298;2023-05-19T05:27:56;102642.91;;;14.20;71.16
24422;BME280;12600;53.326;-6.298;2023-05-19T05:30:54;102632.72;;;14.20;71.09
24422;BME280;12600;53.326;-6.298;2023-05-19T05:33:45;102637.34;;;14.25;70.87
24422;BME280;12600;53.326;-6.298;2023-05-19T05:36:38;102634.06;;;14.28;70.82
24422;BME280;12600;53.326;-6.298;2023-05-19T05:39:29;102645.78;;;14.39;70.53
24422;BME280;12600;53.326;-6.298;2023-05-19T05:42:24;102633.69;;;14.40;70.62
24422;BME280;12600;53.326;-6.298;2023-05-19T05:45:17;102641.88;;;14.50;70.46
24422;BME280;12600;53.326;-6.298;2023-05-19T05:48:13;102632.50;;;14.51;70.02
24422;BME280;12600;53.326;-6.298;2023-05-19T05:51:21;102641.66;;;14.46;70.20
24422;BME280;12600;53.326;-6.298;2023-05-19T05:54:13;102626.78;;;14.42;70.34
24422;BME280;12600;53.326;-6.298;2023-05-19T05:57:10;102643.50;;;14.56;70.34
24422;BME280;12600;53.326;-6.298;2023-05-19T06:00:04;102645.94;;;14.58;69.71
24422;BME280;12600;53.326;-6.298;2023-05-19T06:03:02;102644.28;;;14.62;70.19
24422;BME280;12600;53.326;-6.298;2023-05-19T06:05:54;102649.50;;;14.58;70.32
24422;BME280;12600;53.326;-6.298;2023-05-19T06:08:44;102639.88;;;14.61;70.26
24422;BME280;12600;53.326;-6.298;2023-05-19T06:11:34;102626.88;;;14.66;70.09
24422;BME280;12600;53.326;-6.298;2023-05-19T06:14:33;102634.25;;;14.76;70.05
24422;BME280;12600;53.326;-6.298;2023-05-19T06:17:55;102641.41;;;14.77;70.04
24422;BME280;12600;53.326;-6.298;2023-05-19T06:20:44;102649.09;;;14.75;70.37
24422;BME280;12600;53.326;-6.298;2023-05-19T06:23:35;102651.00;;;14.79;70.49
24422;BME280;12600;53.326;-6.298;2023-05-19T06:26:27;102646.31;;;14.80;70.13
24422;BME280;12600;53.326;-6.298;2023-05-19T06:29:17;102646.53;;;14.83;70.66
24422;BME280;12600;53.326;-6.298;2023-05-19T06:32:08;102637.44;;;14.88;70.39
24422;BME280;12600;53.326;-6.298;2023-05-19T06:34:58;102629.66;;;14.95;70.15
24422;BME280;12600;53.326;-6.298;2023-05-19T06:37:48;102633.81;;;14.93;70.30
24422;BME280;12600;53.326;-6.298;2023-05-19T06:40:44;102635.69;;;14.97;70.17
24422;BME280;12600;53.326;-6.298;2023-05-19T06:43:34;102625.19;;;14.99;70.15
24422;BME280;12600;53.326;-6.298;2023-05-19T06:46:26;102628.25;;;14.98;69.83
24422;BME280;12600;53.326;-6.298;2023-05-19T06:49:17;102628.44;;;15.06;69.67
24422;BME280;12600;53.326;-6.298;2023-05-19T06:52:08;102629.03;;;15.03;69.62
24422;BME280;12600;53.326;-6.298;2023-05-19T06:55:05;102629.50;;;15.10;69.47
24422;BME280;12600;53.326;-6.298;2023-05-19T06:57:58;102630.53;;;15.15;69.44
24422;BME280;12600;53.326;-6.298;2023-05-19T07:00:48;102632.31;;;15.29;69.45
24422;BME280;12600;53.326;-6.298;2023-05-19T07:03:37;102638.72;;;15.25;69.18
24422;BME280;12600;53.326;-6.298;2023-05-19T07:06:28;102643.50;;;15.38;69.14
24422;BME280;12600;53.326;-6.298;2023-05-19T07:09:18;102648.44;;;15.41;68.94
24422;BME280;12600;53.326;-6.298;2023-05-19T07:12:08;102648.84;;;15.29;68.98
24422;BME280;12600;53.326;-6.298;2023-05-19T07:14:59;102652.84;;;15.42;68.83
24422;BME280;12600;53.326;-6.298;2023-05-19T07:17:49;102660.75;;;15.49;68.61
24422;BME280;12600;53.326;-6.298;2023-05-19T07:20:38;102664.81;;;15.56;68.36
24422;BME280;12600;53.326;-6.298;2023-05-19T07:23:28;102671.13;;;15.57;68.37
24422;BME280;12600;53.326;-6.298;2023-05-19T07:26:17;102671.91;;;15.62;68.32
24422;BME280;12600;53.326;-6.298;2023-05-19T07:29:07;102688.50;;;15.57;68.12
24422;BME280;12600;53.326;-6.298;2023-05-19T07:31:57;102698.34;;;15.63;67.81
24422;BME280;12600;53.326;-6.298;2023-05-19T07:34:47;102693.69;;;15.64;68.12
24422;BME280;12600;53.326;-6.298;2023-05-19T07:37:36;102686.81;;;15.61;67.92
24422;BME280;12600;53.326;-6.298;2023-05-19T07:40:26;102693.94;;;15.62;67.69
24422;BME280;12600;53.326;-6.298;2023-05-19T07:43:15;102677.97;;;15.64;67.76
24422;BME280;12600;53.326;-6.298;2023-05-19T07:46:05;102675.66;;;15.72;67.72
24422;BME280;12600;53.326;-6.298;2023-05-19T07:48:56;102678.34;;;15.77;67.41
24422;BME280;12600;53.326;-6.298;2023-05-19T07:51:45;102683.25;;;15.80;67.17
24422;BME280;12600;53.326;-6.298;2023-05-19T07:54:37;102687.75;;;15.76;67.21
24422;BME280;12600;53.326;-6.298;2023-05-19T07:57:26;102669.06;;;15.73;67.42
24422;BME280;12600;53.326;-6.298;2023-05-19T08:00:17;102671.66;;;15.83;67.61
24422;BME280;12600;53.326;-6.298;2023-05-19T08:03:07;102690.22;;;15.96;67.39
24422;BME280;12600;53.326;-6.298;2023-05-19T08:05:58;102684.91;;;16.05;66.96
24422;BME280;12600;53.326;-6.298;2023-05-19T08:08:48;102685.06;;;16.13;67.04
24422;BME280;12600;53.326;-6.298;2023-05-19T08:11:37;102676.94;;;16.22;66.42
24422;BME280;12600;53.326;-6.298;2023-05-19T08:14:26;102693.63;;;16.31;65.92
24422;BME280;12600;53.326;-6.298;2023-05-19T08:17:16;102680.84;;;16.35;64.98
24422;BME280;12600;53.326;-6.298;2023-05-19T08:20:06;102697.50;;;16.48;65.20
24422;BME280;12600;53.326;-6.298;2023-05-19T08:22:58;102692.59;;;16.45;64.53
24422;BME280;12600;53.326;-6.298;2023-05-19T08:25:47;102697.94;;;16.56;64.80
24422;BME280;12600;53.326;-6.298;2023-05-19T08:28:37;102705.59;;;16.59;63.93
24422;BME280;12600;53.326;-6.298;2023-05-19T08:31:26;102718.81;;;16.62;63.42
24422;BME280;12600;53.326;-6.298;2023-05-19T08:34:16;102705.91;;;16.57;63.70
24422;BME280;12600;53.326;-6.298;2023-05-19T08:37:06;102706.34;;;16.64;63.40
24422;BME280;12600;53.326;-6.298;2023-05-19T08:39:57;102709.41;;;16.63;63.01
24422;BME280;12600;53.326;-6.298;2023-05-19T08:42:47;102698.53;;;16.71;62.91
24422;BME280;12600;53.326;-6.298;2023-05-19T08:45:36;102699.50;;;16.81;62.92
24422;BME280;12600;53.326;-6.298;2023-05-19T08:48:29;102693.53;;;16.73;62.63
24422;BME280;12600;53.326;-6.298;2023-05-19T08:51:29;102691.53;;;16.79;62.61
24422;BME280;12600;53.326;-6.298;2023-05-19T08:54:23;102692.94;;;16.76;61.68
24422;BME280;12600;53.326;-6.298;2023-05-19T08:57:15;102705.19;;;16.70;61.39
24422;BME280;12600;53.326;-6.298;2023-05-19T09:00:07;102699.78;;;16.60;61.95
24422;BME280;12600;53.326;-6.298;2023-05-19T09:02:59;102702.84;;;16.59;62.49
24422;BME280;12600;53.326;-6.298;2023-05-19T09:05:53;102712.38;;;16.66;62.63
24422;BME280;12600;53.326;-6.298;2023-05-19T09:08:43;102703.16;;;16.76;62.46
24422;BME280;12600;53.326;-6.298;2023-05-19T09:11:34;102690.09;;;16.82;62.11
24422;BME280;12600;53.326;-6.298;2023-05-19T09:14:26;102694.47;;;16.83;62.27
24422;BME280;12600;53.326;-6.298;2023-05-19T09:17:16;102692.09;;;16.95;62.03
24422;BME280;12600;53.326;-6.298;2023-05-19T09:20:07;102700.53;;;16.85;61.79
24422;BME280;12600;53.326;-6.298;2023-05-19T09:22:59;102661.97;;;16.80;61.87
24422;BME280;12600;53.326;-6.298;2023-05-19T09:25:49;102669.38;;;16.98;61.57
24422;BME280;12600;53.326;-6.298;2023-05-19T09:28:39;102674.31;;;17.01;61.24
24422;BME280;12600;53.326;-6.298;2023-05-19T09:31:32;102671.94;;;17.08;61.16
24422;BME280;12600;53.326;-6.298;2023-05-19T09:34:22;102678.72;;;17.16;60.76
24422;BME280;12600;53.326;-6.298;2023-05-19T09:37:13;102678.31;;;17.22;60.93
24422;BME280;12600;53.326;-6.298;2023-05-19T09:40:04;102681.59;;;17.24;60.52
24422;BME280;12600;53.326;-6.298;2023-05-19T09:42:58;102670.53;;;17.24;60.69
24422;BME280;12600;53.326;-6.298;2023-05-19T09:45:47;102677.53;;;17.36;60.72
24422;BME280;12600;53.326;-6.298;2023-05-19T09:48:38;102665.66;;;17.35;60.30
24422;BME280;12600;53.326;-6.298;2023-05-19T09:51:27;102674.97;;;17.53;60.72
24422;BME280;12600;53.326;-6.298;2023-05-19T09:54:20;102666.28;;;17.59;60.28
24422;BME280;12600;53.326;-6.298;2023-05-19T09:57:10;102679.16;;;17.64;60.14
24422;BME280;12600;53.326;-6.298;2023-05-19T10:00:03;102685.03;;;17.76;60.00
24422;BME280;12600;53.326;-6.298;2023-05-19T10:02:59;102681.22;;;17.72;59.14
24422;BME280;12600;53.326;-6.298;2023-05-19T10:05:52;102670.03;;;17.63;58.85
24422;BME280;12600;53.326;-6.298;2023-05-19T10:08:42;102688.50;;;17.82;59.76
24422;BME280;12600;53.326;-6.298;2023-05-19T10:11:32;102687.88;;;17.99;59.26
24422;BME280;12600;53.326;-6.298;2023-05-19T10:14:23;102681.13;;;18.05;58.92
24422;BME280;12600;53.326;-6.298;2023-05-19T10:17:13;102677.97;;;18.20;58.68
24422;BME280;12600;53.326;-6.298;2023-05-19T10:20:05;102673.91;;;18.04;57.62
24422;BME280;12600;53.326;-6.298;2023-05-19T10:22:59;102683.31;;;18.16;57.93
24422;BME280;12600;53.326;-6.298;2023-05-19T10:25:50;102676.63;;;18.31;58.02
24422;BME280;12600;53.326;-6.298;2023-05-19T10:28:43;102687.28;;;18.38;57.40
24422;BME280;12600;53.326;-6.298;2023-05-19T10:31:33;102681.66;;;18.52;57.23
24422;BME280;12600;53.326;-6.298;2023-05-19T10:35:06;102686.34;;;18.65;56.93
24422;BME280;12600;53.326;-6.298;2023-05-19T10:38:18;102672.59;;;18.60;56.00
24422;BME280;12600;53.326;-6.298;2023-05-19T10:41:15;102677.41;;;18.45;55.66
24422;BME280;12600;53.326;-6.298;2023-05-19T10:44:30;102686.97;;;18.62;56.37
24422;BME280;12600;53.326;-6.298;2023-05-19T10:47:23;102682.69;;;18.56;55.64
24422;BME280;12600;53.326;-6.298;2023-05-19T10:50:13;102677.47;;;18.54;55.23
24422;BME280;12600;53.326;-6.298;2023-05-19T10:53:13;102680.91;;;18.60;54.55
24422;BME280;12600;53.326;-6.298;2023-05-19T10:56:05;102685.53;;;18.64;54.67
24422;BME280;12600;53.326;-6.298;2023-05-19T10:58:57;102682.06;;;18.59;54.64
24422;BME280;12600;53.326;-6.298;2023-05-19T11:01:46;102686.53;;;18.68;55.05
24422;BME280;12600;53.326;-6.298;2023-05-19T11:04:45;102686.25;;;18.70;54.51
24422;BME280;12600;53.326;-6.298;2023-05-19T11:07:41;102690.22;;;18.78;54.72
24422;BME280;12600;53.326;-6.298;2023-05-19T11:10:33;102690.84;;;18.75;53.69
24422;BME280;12600;53.326;-6.298;2023-05-19T11:13:27;102692.53;;;18.84;53.86
24422;BME280;12600;53.326;-6.298;2023-05-19T11:16:18;102691.03;;;18.78;53.54
24422;BME280;12600;53.326;-6.298;2023-05-19T11:19:16;102686.47;;;18.82;52.67
24422;BME280;12600;53.326;-6.298;2023-05-19T11:22:09;102684.97;;;18.98;52.96
24422;BME280;12600;53.326;-6.298;2023-05-19T11:24:59;102693.13;;;19.26;52.75
24422;BME280;12600;53.326;-6.298;2023-05-19T11:27:50;102693.13;;;19.26;51.74
24422;BME280;12600;53.326;-6.298;2023-05-19T11:30:41;102700.91;;;19.24;51.50
24422;BME280;12600;53.326;-6.298;2023-05-19T11:33:31;102691.59;;;19.20;51.33
24422;BME280;12600;53.326;-6.298;2023-05-19T11:36:21;102703.41;;;19.03;51.44
24422;BME280;12600;53.326;-6.298;2023-05-19T11:39:11;102698.97;;;18.93;51.75
24422;BME280;12600;53.326;-6.298;2023-05-19T11:42:00;102694.69;;;18.87;51.95
24422;BME280;12600;53.326;-6.298;2023-05-19T11:44:54;102695.28;;;18.84;52.12
24422;BME280;12600;53.326;-6.298;2023-05-19T11:47:45;102697.72;;;18.77;52.23
24422;BME280;12600;53.326;-6.298;2023-05-19T11:50:49;102702.94;;;18.79;51.90
24422;BME280;12600;53.326;-6.298;2023-05-19T11:53:39;102698.38;;;18.83;51.71
24422;BME280;12600;53.326;-6.298;2023-05-19T11:56:33;102690.28;;;18.86;51.60
24422;BME280;12600;53.326;-6.298;2023-05-19T11:59:29;102694.09;;;18.77;51.74
24422;BME280;12600;53.326;-6.298;2023-05-19T12:02:24;102674.53;;;18.73;51.67
24422;BME280;12600;53.326;-6.298;2023-05-19T12:05:20;102669.25;;;18.85;51.33
24422;BME280;12600;53.326;-6.298;2023-05-19T12:08:10;102676.66;;;18.98;51.25
24422;BME280;12600;53.326;-6.298;2023-05-19T12:10:59;102691.25;;;19.13;50.89
24422;BME280;12600;53.326;-6.298;2023-05-19T12:13:49;102685.75;;;19.21;50.78
24422;BME280;12600;53.326;-6.298;2023-05-19T12:16:41;102687.41;;;19.31;50.45
24422;BME280;12600;53.326;-6.298;2023-05-19T12:19:32;102684.38;;;19.41;50.42
24422;BME280;12600;53.326;-6.298;2023-05-19T12:22:21;102687.72;;;19.61;50.52
24422;BME280;12600;53.326;-6.298;2023-05-19T12:25:11;102679.13;;;19.79;49.70
24422;BME280;12600;53.326;-6.298;2023-05-19T12:28:01;102682.28;;;20.04;48.36
24422;BME280;12600;53.326;-6.298;2023-05-19T12:30:52;102667.44;;;20.26;47.55
24422;BME280;12600;53.326;-6.298;2023-05-19T12:33:41;102682.16;;;20.52;47.62
24422;BME280;12600;53.326;-6.298;2023-05-19T12:36:33;102682.31;;;20.73;47.23
24422;BME280;12600;53.326;-6.298;2023-05-19T12:39:23;102689.00;;;20.81;45.70
24422;BME280;12600;53.326;-6.298;2023-05-19T12:42:14;102687.56;;;20.75;45.05
24422;BME280;12600;53.326;-6.298;2023-05-19T12:45:05;102687.50;;;20.92;45.40
24422;BME280;12600;53.326;-6.298;2023-05-19T12:47:55;102691.59;;;21.03;45.48
24422;BME280;12600;53.326;-6.298;2023-05-19T12:50:47;102696.47;;;21.06;45.15
24422;BME280;12600;53.326;-6.298;2023-05-19T12:53:37;102693.59;;;20.94;44.57
24422;BME280;12600;53.326;-6.298;2023-05-19T12:56:27;102694.09;;;20.87;44.58
24422;BME280;12600;53.326;-6.298;2023-05-19T12:59:22;102693.66;;;21.15;44.47
24422;BME280;12600;53.326;-6.298;2023-05-19T13:02:25;102685.47;;;21.36;44.48
24422;BME280;12600;53.326;-6.298;2023-05-19T13:05:14;102678.44;;;21.68;44.13
24422;BME280;12600;53.326;-6.298;2023-05-19T13:08:06;102684.03;;;21.89;42.06
24422;BME280;12600;53.326;-6.298;2023-05-19T13:10:57;102686.97;;;22.22;42.68
24422;BME280;12600;53.326;-6.298;2023-05-19T13:13:47;102688.25;;;22.24;41.62
24422;BME280;12600;53.326;-6.298;2023-05-19T13:16:36;102683.69;;;22.20;41.50
24422;BME280;12600;53.326;-6.298;2023-05-19T13:19:26;102686.16;;;21.92;41.04
24422;BME280;12600;53.326;-6.298;2023-05-19T13:22:15;102683.72;;;21.61;41.71
24422;BME280;12600;53.326;-6.298;2023-05-19T13:25:06;102687.94;;;21.67;41.85
24422;BME280;12600;53.326;-6.298;2023-05-19T13:27:57;102673.06;;;21.92;42.16
24422;BME280;12600;53.326;-6.298;2023-05-19T13:30:48;102662.78;;;22.34;41.70
24422;BME280;12600;53.326;-6.298;2023-05-19T13:33:38;102656.63;;;22.62;40.92
24422;BME280;12600;53.326;-6.298;2023-05-19T13:36:27;102670.78;;;22.90;39.54
24422;BME280;12600;53.326;-6.298;2023-05-19T13:39:16;102658.28;;;23.33;39.42
24422;BME280;12600;53.326;-6.298;2023-05-19T13:42:06;102674.72;;;23.83;38.37
24422;BME280;12600;53.326;-6.298;2023-05-19T13:44:57;102663.00;;;24.18;37.81
24422;BME280;12600;53.326;-6.298;2023-05-19T13:47:46;102669.00;;;24.44;37.60
24422;BME280;12600;53.326;-6.298;2023-05-19T13:50:36;102661.69;;;24.40;36.98
24422;BME280;12600;53.326;-6.298;2023-05-19T13:53:25;102666.41;;;24.11;36.66
24422;BME280;12600;53.326;-6.298;2023-05-19T13:56:16;102662.56;;;24.04;36.85
24422;BME280;12600;53.326;-6.298;2023-05-19T13:59:05;102654.88;;;24.13;37.22
24422;BME280;12600;53.326;-6.298;2023-05-19T14:01:56;102655.00;;;24.04;36.99
24422;BME280;12600;53.326;-6.298;2023-05-19T14:04:47;102660.88;;;23.87;36.93
24422;BME280;12600;53.326;-6.298;2023-05-19T14:07:36;102659.63;;;23.60;37.26
24422;BME280;12600;53.326;-6.298;2023-05-19T14:10:26;102656.91;;;23.39;37.49
24422;BME280;12600;53.326;-6.298;2023-05-19T14:13:15;102662.22;;;23.07;37.88
24422;BME280;12600;53.326;-6.298;2023-05-19T14:16:21;102657.91;;;22.98;38.42
24422;BME280;12600;53.326;-6.298;2023-05-19T14:19:12;102656.03;;;22.89;38.67
24422;BME280;12600;53.326;-6.298;2023-05-19T14:22:01;102654.31;;;22.64;39.24
24422;BME280;12600;53.326;-6.298;2023-05-19T14:24:51;102655.47;;;22.63;39.17
24422;BME280;12600;53.326;-6.298;2023-05-19T14:27:40;102660.50;;;22.82;39.15
24422;BME280;12600;53.326;-6.298;2023-05-19T14:30:29;102658.28;;;23.08;39.02
24422;BME280;12600;53.326;-6.298;2023-05-19T14:33:20;102651.47;;;23.18;38.39
24422;BME280;12600;53.326;-6.298;2023-05-19T14:36:10;102656.56;;;23.53;37.91
24422;BME280;12600;53.326;-6.298;2023-05-19T14:39:00;102654.25;;;23.91;37.57
24422;BME280;12600;53.326;-6.298;2023-05-19T14:41:49;102661.78;;;24.03;36.92
24422;BME280;12600;53.326;-6.298;2023-05-19T14:44:39;102653.75;;;23.89;36.92
24422;BME280;12600;53.326;-6.298;2023-05-19T14:47:29;102658.34;;;23.69;37.12